sensor_id;sensor_type;location;lat;lon;timestamp;pressure;altitude;pressure_sealevel;temperature;humidity
71465;BME280;59274;49.874;9.154;2023-04-08T00:01:37;100733.16;;;7.54;100.00
71465;BME280;59274;49.874;9.154;2023-04-08T00:04:03;100724.72;;;7.55;100.00
71465;BME280;59274;49.874;9.154;2023-04-08T00:06:28;100727.66;;;7.50;100.00
71465;BME280;59274;49.874;9.154;2023-04-08T00:08:54;100728.44;;;7.51;100.00
71465;BME280;59274;49.874;9.154;2023-04-08T00:11:19;100721.22;;;7.55;100.00
71465;BME280;59274;49.874;9.154;2023-04-08T00:13:45;100731.81;;;7.47;100.00
71465;BME280;59274;49.874;9.154;2023-04-08T00:16:10;100726.88;;;7.50;100.00
71465;BME280;59274;49.874;9.154;2023-04-08T00:18:36;100734.44;;;7.44;100.00
71465;BME280;59274;49.874;9.154;2023-04-08T00:21:03;100729.44;;;7.46;100.00
71465;BME280;59274;49.874;9.154;2023-04-08T00:23:28;100728.69;;;7.45;100.00
71465;BME280;59274;49.874;9.154;2023-04-08T00:25:54;100719.88;;;7.48;100.00
71465;BME280;59274;49.874;9.154;2023-04-08T00:28:19;100724.97;;;7.50;100.00
71465;BME280;59274;49.874;9.154;2023-04-08T00:30:45;100726.09;;;7.49;100.00
71465;BME280;59274;49.874;9.154;2023-04-08T00:33:11;100736.31;;;7.56;100.00
71465;BME280;59274;49.874;9.154;2023-04-08T00:35:36;100735.53;;;7.55;100.00
71465;BME280;59274;49.874;9.154;2023-04-08T00:38:02;100731.59;;;7.65;100.00
71465;BME280;59274;49.874;9.154;2023-04-08T00:40:28;100731.94;;;7.63;100.00
71465;BME280;59274;49.874;9.154;2023-04-08T00:42:55;100725.50;;;7.56;100.00
71465;BME280;59274;49.874;9.154;2023-04-08T00:45:21;100736.31;;;7.56;100.00
71465;BME280;59274;49.874;9.154;2023-04-08T00:47:46;100737.78;;;7.53;100.00
71465;BME280;59274;49.874;9.154;2023-04-08T00:50:17;100737.03;;;7.53;100.00
71465;BME280;59274;49.874;9.154;2023-04-08T00:52:42;100737.78;;;7.53;100.00
71465;BME280;59274;49.874;9.154;2023-04-08T00:55:08;100747.25;;;7.59;100.00
71465;BME280;59274;49.874;9.154;2023-04-08T00:57:34;100743.06;;;7.62;100.00
71465;BME280;59274;49.874;9.154;2023-04-08T01:00:00;100735.53;;;7.55;100.00
71465;BME280;59274;49.874;9.154;2023-04-08T01:02:50;100741.50;;;7.48;100.00
71465;BME280;59274;49.874;9.154;2023-04-08T01:08:09;100740.63;;;7.44;100.00
71465;BME280;59274;49.874;9.154;2023-04-08T01:10:37;100736.00;;;7.45;100.00
71465;BME280;59274;49.874;9.154;2023-04-08T01:13:06;100740.16;;;7.42;100.00
71465;BME280;59274;49.874;9.154;2023-04-08T01:15:34;100733.63;;;7.43;100.00
71465;BME280;59274;49.874;9.154;2023-04-08T01:18:05;100741.06;;;7.46;100.00
71465;BME280;59274;49.874;9.154;2023-04-08T01:20:31;100738.34;;;7.46;100.00
71465;BME280;59274;49.874;9.154;2023-04-08T01:25:49;100737.34;;;7.39;100.00
71465;BME280;59274;49.874;9.154;2023-04-08T01:28:18;100735.41;;;7.39;100.00
71465;BME280;59274;49.874;9.154;2023-04-08T01:30:45;100738.91;;;7.28;100.00
71465;BME280;59274;49.874;9.154;2023-04-08T01:33:13;100740.50;;;7.29;100.00
71465;BME280;59274;49.874;9.154;2023-04-08T01:35:39;100745.22;;;7.20;100.00
71465;BME280;59274;49.874;9.154;2023-04-08T01:38:10;100735.09;;;7.17;100.00
71465;BME280;59274;49.874;9.154;2023-04-08T01:40:39;100743.41;;;7.12;100.00
71465;BME280;59274;49.874;9.154;2023-04-08T01:43:07;100743.53;;;7.15;100.00
71465;BME280;59274;49.874;9.154;2023-04-08T01:45:34;100734.09;;;7.09;100.00
71465;BME280;59274;49.874;9.154;2023-04-08T01:48:00;100741.81;;;6.98;100.00
71465;BME280;59274;49.874;9.154;2023-04-08T01:50:26;100736.75;;;6.97;100.00
71465;BME280;59274;49.874;9.154;2023-04-08T01:52:53;100740.88;;;6.82;100.00
71465;BME280;59274;49.874;9.154;2023-04-08T01:55:20;100737.81;;;6.72;100.00
71465;BME280;59274;49.874;9.154;2023-04-08T01:57:49;100735.22;;;6.63;100.00
71465;BME280;59274;49.874;9.154;2023-04-08T02:00:18;100739.38;;;6.60;100.00
71465;BME280;59274;49.874;9.154;2023-04-08T02:02:45;100735.28;;;6.54;100.00
71465;BME280;59274;49.874;9.154;2023-04-08T02:05:12;100743.13;;;6.47;100.00
71465;BME280;59274;49.874;9.154;2023-04-08T02:07:37;100741.75;;;6.41;100.00
71465;BME280;59274;49.874;9.154;2023-04-08T02:10:06;100745.00;;;6.35;100.00
71465;BME280;59274;49.874;9.154;2023-04-08T02:12:32;100744.97;;;6.22;100.00
71465;BME280;59274;49.874;9.154;2023-04-08T02:14:58;100743.44;;;6.13;100.00
71465;BME280;59274;49.874;9.154;2023-04-08T02:17:45;100742.78;;;5.95;100.00
71465;BME280;59274;49.874;9.154;2023-04-08T02:22:51;100756.44;;;5.90;100.00
71465;BME280;59274;49.874;9.154;2023-04-08T02:25:22;100756.13;;;5.92;100.00
71465;BME280;59274;49.874;9.154;2023-04-08T02:27:49;100762.25;;;6.01;100.00
71465;BME280;59274;49.874;9.154;2023-04-08T02:30:17;100760.47;;;6.05;100.00
71465;BME280;59274;49.874;9.154;2023-04-08T02:32:43;100763.78;;;6.10;100.00
71465;BME280;59274;49.874;9.154;2023-04-08T02:35:11;100764.38;;;6.16;100.00
71465;BME280;59274;49.874;9.154;2023-04-08T02:37:37;100767.53;;;6.18;100.00
71465;BME280;59274;49.874;9.154;2023-04-08T02:40:03;100766.66;;;6.26;100.00
71465;BME280;59274;49.874;9.154;2023-04-08T02:42:28;100768.50;;;6.34;100.00
71465;BME280;59274;49.874;9.154;2023-04-08T02:44:54;100770.41;;;6.34;100.00
71465;BME280;59274;49.874;9.154;2023-04-08T02:47:21;100761.50;;;6.33;100.00
71465;BME280;59274;49.874;9.154;2023-04-08T02:49:46;100766.97;;;6.45;100.00
71465;BME280;59274;49.874;9.154;2023-04-08T02:52:12;100766.31;;;6.48;100.00
71465;BME280;59274;49.874;9.154;2023-04-08T02:54:37;100762.16;;;6.51;100.00
71465;BME280;59274;49.874;9.154;2023-04-08T02:57:03;100769.56;;;6.54;100.00
71465;BME280;59274;49.874;9.154;2023-04-08T02:59:28;100766.38;;;6.60;100.00
71465;BME280;59274;49.874;9.154;2023-04-08T03:01:55;100767.03;;;6.57;100.00
71465;BME280;59274;49.874;9.154;2023-04-08T03:04:20;100774.66;;;6.55;100.00
71465;BME280;59274;49.874;9.154;2023-04-08T03:06:46;100772.53;;;6.61;100.00
71465;BME280;59274;49.874;9.154;2023-04-08T03:09:11;100785.66;;;6.50;100.00
71465;BME280;59274;49.874;9.154;2023-04-08T03:11:37;100783.06;;;6.54;100.00
71465;BME280;59274;49.874;9.154;2023-04-08T03:14:02;100778.03;;;6.52;100.00
71465;BME280;59274;49.874;9.154;2023-04-08T03:16:28;100786.78;;;6.49;100.00
71465;BME280;59274;49.874;9.154;2023-04-08T03:18:53;100788.09;;;6.43;100.00
71465;BME280;59274;49.874;9.154;2023-04-08T03:21:19;100788.09;;;6.43;100.00
71465;BME280;59274;49.874;9.154;2023-04-08T03:23:44;100793.75;;;6.50;100.00
71465;BME280;59274;49.874;9.154;2023-04-08T03:26:10;100786.22;;;6.56;100.00
71465;BME280;59274;49.874;9.154;2023-04-08T03:28:36;100786.38;;;6.59;100.00
71465;BME280;59274;49.874;9.154;2023-04-08T03:31:03;100787.81;;;6.57;100.00
71465;BME280;59274;49.874;9.154;2023-04-08T03:33:28;100783.28;;;6.49;100.00
71465;BME280;59274;49.874;9.154;2023-04-08T03:35:54;100783.34;;;6.40;100.00
71465;BME280;59274;49.874;9.154;2023-04-08T03:38:20;100792.97;;;6.29;100.00
71465;BME280;59274;49.874;9.154;2023-04-08T03:40:45;100788.44;;;6.21;100.00
71465;BME280;59274;49.874;9.154;2023-04-08T03:43:11;100794.56;;;6.30;100.00
71465;BME280;59274;49.874;9.154;2023-04-08T03:45:37;100799.16;;;6.29;100.00
71465;BME280;59274;49.874;9.154;2023-04-08T03:48:03;100795.63;;;6.17;100.00
71465;BME280;59274;49.874;9.154;2023-04-08T03:50:28;100801.78;;;6.17;100.00
71465;BME280;59274;49.874;9.154;2023-04-08T03:52:54;100808.47;;;6.11;100.00
71465;BME280;59274;49.874;9.154;2023-04-08T03:55:19;100804.03;;;6.15;100.00
71465;BME280;59274;49.874;9.154;2023-04-08T03:57:45;100807.97;;;6.18;100.00
71465;BME280;59274;49.874;9.154;2023-04-08T04:00:10;100806.72;;;6.15;100.00
71465;BME280;59274;49.874;9.154;2023-04-08T04:02:36;100803.03;;;6.20;100.00
71465;BME280;59274;49.874;9.154;2023-04-08T04:05:02;100803.34;;;6.18;100.00
71465;BME280;59274;49.874;9.154;2023-04-08T04:07:27;100804.34;;;6.14;100.00
71465;BME280;59274;49.874;9.154;2023-04-08T04:09:52;100799.88;;;6.18;100.00
71465;BME280;59274;49.874;9.154;2023-04-08T04:12:20;100804.94;;;6.19;100.00
71465;BME280;59274;49.874;9.154;2023-04-08T04:14:45;100805.59;;;6.16;100.00
71465;BME280;59274;49.874;9.154;2023-04-08T04:17:11;100809.34;;;6.24;100.00
71465;BME280;59274;49.874;9.154;2023-04-08T04:19:36;100805.72;;;6.20;100.00
71465;BME280;59274;49.874;9.154;2023-04-08T04:22:02;100808.09;;;6.21;100.00
71465;BME280;59274;49.874;9.154;2023-04-08T04:24:27;100809.69;;;6.22;100.00
71465;BME280;59274;49.874;9.154;2023-04-08T04:26:52;100809.25;;;6.12;100.00
71465;BME280;59274;49.874;9.154;2023-04-08T04:29:18;100810.59;;;6.06;100.00
71465;BME280;59274;49.874;9.154;2023-04-08T04:31:43;100817.72;;;6.10;100.00
71465;BME280;59274;49.874;9.154;2023-04-08T04:34:10;100824.06;;;6.06;100.00
71465;BME280;59274;49.874;9.154;2023-04-08T04:36:35;100823.41;;;6.09;100.00
71465;BME280;59274;49.874;9.154;2023-04-08T04:39:01;100817.03;;;6.13;100.00
71465;BME280;59274;49.874;9.154;2023-04-08T04:41:26;100817.34;;;6.12;100.00
71465;BME280;59274;49.874;9.154;2023-04-08T04:43:52;100822.47;;;5.75;100.00
71465;BME280;59274;49.874;9.154;2023-04-08T04:46:17;100821.13;;;5.90;100.00
71465;BME280;59274;49.874;9.154;2023-04-08T04:48:43;100819.50;;;5.98;100.00
71465;BME280;59274;49.874;9.154;2023-04-08T04:51:08;100814.28;;;6.01;100.00
71465;BME280;59274;49.874;9.154;2023-04-08T04:53:33;100818.03;;;6.09;100.00
71465;BME280;59274;49.874;9.154;2023-04-08T04:55:59;100816.97;;;6.01;100.00
71465;BME280;59274;49.874;9.154;2023-04-08T04:58:26;100814.06;;;6.06;100.00
71465;BME280;59274;49.874;9.154;2023-04-08T05:00:51;100816.97;;;6.01;100.00
71465;BME280;59274;49.874;9.154;2023-04-08T05:03:16;100814.22;;;6.10;100.00
71465;BME280;59274;49.874;9.154;2023-04-08T05:05:42;100819.22;;;6.20;100.00
71465;BME280;59274;49.874;9.154;2023-04-08T05:08:07;100821.50;;;6.09;100.00
71465;BME280;59274;49.874;9.154;2023-04-08T05:10:33;100821.63;;;6.13;100.00
71465;BME280;59274;49.874;9.154;2023-04-08T05:12:58;100826.06;;;6.17;100.00
71465;BME280;59274;49.874;9.154;2023-04-08T05:15:24;100828.56;;;6.22;100.00
71465;BME280;59274;49.874;9.154;2023-04-08T05:17:49;100836.22;;;6.12;100.00
71465;BME280;59274;49.874;9.154;2023-04-08T05:20:15;100837.88;;;6.04;100.00
71465;BME280;59274;49.874;9.154;2023-04-08T05:22:40;100842.38;;;5.92;100.00
71465;BME280;59274;49.874;9.154;2023-04-08T05:25:07;100834.81;;;5.76;100.00
71465;BME280;59274;49.874;9.154;2023-04-08T05:27:32;100846.88;;;5.79;100.00
71465;BME280;59274;49.874;9.154;2023-04-08T05:29:58;100847.50;;;5.76;100.00
71465;BME280;59274;49.874;9.154;2023-04-08T05:32:23;100850.91;;;5.56;100.00
71465;BME280;59274;49.874;9.154;2023-04-08T05:34:48;100855.22;;;5.48;100.00
71465;BME280;59274;49.874;9.154;2023-04-08T05:37:14;100852.53;;;5.48;100.00
71465;BME280;59274;49.874;9.154;2023-04-08T05:39:40;100855.22;;;5.48;100.00
71465;BME280;59274;49.874;9.154;2023-04-08T05:42:06;100864.59;;;5.42;100.00
71465;BME280;59274;49.874;9.154;2023-04-08T05:44:32;100868.56;;;5.36;100.00
71465;BME280;59274;49.874;9.154;2023-04-08T05:46:57;100867.47;;;5.37;100.00
71465;BME280;59274;49.874;9.154;2023-04-08T05:49:24;100863.06;;;5.32;100.00
71465;BME280;59274;49.874;9.154;2023-04-08T05:51:49;100865.69;;;5.41;100.00
71465;BME280;59274;49.874;9.154;2023-04-08T05:54:15;100860.38;;;5.32;100.00
71465;BME280;59274;49.874;9.154;2023-04-08T05:56:40;100858.59;;;5.45;100.00
71465;BME280;59274;49.874;9.154;2023-04-08T05:59:06;100867.78;;;5.35;100.00
71465;BME280;59274;49.874;9.154;2023-04-08T06:01:31;100878.22;;;5.45;100.00
71465;BME280;59274;49.874;9.154;2023-04-08T06:03:57;100878.94;;;5.63;100.00
71465;BME280;59274;49.874;9.154;2023-04-08T06:06:23;100886.91;;;5.60;100.00
71465;BME280;59274;49.874;9.154;2023-04-08T06:08:49;100894.69;;;5.53;100.00
71465;BME280;59274;49.874;9.154;2023-04-08T06:11:14;100889.28;;;5.53;100.00
71465;BME280;59274;49.874;9.154;2023-04-08T06:13:41;100891.81;;;5.49;100.00
71465;BME280;59274;49.874;9.154;2023-04-08T06:16:14;100892.91;;;5.57;100.00
71465;BME280;59274;49.874;9.154;2023-04-08T06:18:40;100896.19;;;5.71;100.00
71465;BME280;59274;49.874;9.154;2023-04-08T06:21:05;100904.16;;;5.67;100.00
71465;BME280;59274;49.874;9.154;2023-04-08T06:23:31;100896.16;;;5.88;100.00
71465;BME280;59274;49.874;9.154;2023-04-08T06:25:56;100899.66;;;5.88;100.00
71465;BME280;59274;49.874;9.154;2023-04-08T06:28:23;100908.66;;;5.93;100.00
71465;BME280;59274;49.874;9.154;2023-04-08T06:30:48;100904.06;;;5.93;100.00
71465;BME280;59274;49.874;9.154;2023-04-08T06:33:14;100909.31;;;5.89;100.00
71465;BME280;59274;49.874;9.154;2023-04-08T06:35:39;100910.38;;;5.97;100.00
71465;BME280;59274;49.874;9.154;2023-04-08T06:38:05;100904.34;;;6.00;100.00
71465;BME280;59274;49.874;9.154;2023-04-08T06:40:30;100910.66;;;6.04;100.00
71465;BME280;59274;49.874;9.154;2023-04-08T06:42:56;100914.06;;;5.93;100.00
71465;BME280;59274;49.874;9.154;2023-04-08T06:45:21;100915.00;;;5.97;100.00
71465;BME280;59274;49.874;9.154;2023-04-08T06:47:47;100908.16;;;5.99;100.00
71465;BME280;59274;49.874;9.154;2023-04-08T06:50:12;100911.09;;;6.15;100.00
71465;BME280;59274;49.874;9.154;2023-04-08T06:52:38;100912.44;;;6.29;100.00
71465;BME280;59274;49.874;9.154;2023-04-08T06:55:03;100914.97;;;6.26;100.00
71465;BME280;59274;49.874;9.154;2023-04-08T06:57:29;100911.19;;;6.27;100.00
71465;BME280;59274;49.874;9.154;2023-04-08T06:59:54;100912.56;;;6.33;100.00
71465;BME280;59274;49.874;9.154;2023-04-08T07:02:20;100924.34;;;6.28;100.00
71465;BME280;59274;49.874;9.154;2023-04-08T07:04:47;100918.41;;;6.64;100.00
71465;BME280;59274;49.874;9.154;2023-04-08T07:07:13;100932.91;;;6.81;100.00
71465;BME280;59274;49.874;9.154;2023-04-08T07:09:38;100938.13;;;6.98;100.00
71465;BME280;59274;49.874;9.154;2023-04-08T07:12:05;100937.44;;;6.89;100.00
71465;BME280;59274;49.874;9.154;2023-04-08T07:14:31;100950.47;;;6.66;100.00
71465;BME280;59274;49.874;9.154;2023-04-08T07:16:56;100944.97;;;6.54;100.00
71465;BME280;59274;49.874;9.154;2023-04-08T07:19:21;100947.53;;;6.50;100.00
71465;BME280;59274;49.874;9.154;2023-04-08T07:21:48;100948.28;;;6.59;100.00
71465;BME280;59274;49.874;9.154;2023-04-08T07:24:14;100951.03;;;6.51;100.00
71465;BME280;59274;49.874;9.154;2023-04-08T07:26:40;100935.63;;;6.51;100.00
71465;BME280;59274;49.874;9.154;2023-04-08T07:29:06;100944.06;;;6.50;100.00
71465;BME280;59274;49.874;9.154;2023-04-08T07:31:31;100945.44;;;6.77;100.00
71465;BME280;59274;49.874;9.154;2023-04-08T07:33:57;100945.53;;;6.89;100.00
71465;BME280;59274;49.874;9.154;2023-04-08T07:36:22;100942.63;;;7.15;100.00
71465;BME280;59274;49.874;9.154;2023-04-08T07:38:48;100945.78;;;7.17;100.00
71465;BME280;59274;49.874;9.154;2023-04-08T07:41:13;100948.75;;;6.82;100.00
71465;BME280;59274;49.874;9.154;2023-04-08T07:43:38;100957.13;;;7.10;100.00
71465;BME280;59274;49.874;9.154;2023-04-08T07:46:04;100952.66;;;7.26;100.00
71465;BME280;59274;49.874;9.154;2023-04-08T07:48:34;100952.06;;;7.41;100.00
71465;BME280;59274;49.874;9.154;2023-04-08T07:51:05;100960.47;;;7.73;100.00
71465;BME280;59274;49.874;9.154;2023-04-08T07:53:31;100953.84;;;7.82;100.00
71465;BME280;59274;49.874;9.154;2023-04-08T07:55:57;100955.41;;;7.71;100.00
71465;BME280;59274;49.874;9.154;2023-04-08T07:58:23;100958.44;;;7.82;100.00
71465;BME280;59274;49.874;9.154;2023-04-08T08:00:49;100968.03;;;7.79;100.00
71465;BME280;59274;49.874;9.154;2023-04-08T08:03:16;100970.63;;;7.76;100.00
71465;BME280;59274;49.874;9.154;2023-04-08T08:05:41;100974.56;;;7.66;100.00
71465;BME280;59274;49.874;9.154;2023-04-08T08:08:07;100971.94;;;7.58;100.00
71465;BME280;59274;49.874;9.154;2023-04-08T08:10:36;100979.50;;;7.64;100.00
71465;BME280;59274;49.874;9.154;2023-04-08T08:13:01;100983.53;;;7.58;100.00
71465;BME280;59274;49.874;9.154;2023-04-08T08:15:27;100975.44;;;7.58;100.00
71465;BME280;59274;49.874;9.154;2023-04-08T08:17:52;100987.03;;;7.59;100.00
71465;BME280;59274;49.874;9.154;2023-04-08T08:20:18;100984.19;;;7.55;100.00
71465;BME280;59274;49.874;9.154;2023-04-08T08:22:43;100986.69;;;7.27;100.00
71465;BME280;59274;49.874;9.154;2023-04-08T08:25:09;100987.25;;;7.33;100.00
71465;BME280;59274;49.874;9.154;2023-04-08T08:27:35;100983.28;;;7.51;100.00
71465;BME280;59274;49.874;9.154;2023-04-08T08:30:01;100981.16;;;7.57;100.00
71465;BME280;59274;49.874;9.154;2023-04-08T08:32:28;100987.19;;;7.41;100.00
71465;BME280;59274;49.874;9.154;2023-04-08T08:34:53;100979.72;;;7.59;100.00
71465;BME280;59274;49.874;9.154;2023-04-08T08:37:18;100987.28;;;7.66;100.00
71465;BME280;59274;49.874;9.154;2023-04-08T08:39:44;100988.88;;;7.79;100.00
71465;BME280;59274;49.874;9.154;2023-04-08T08:42:22;100992.88;;;7.94;100.00
71465;BME280;59274;49.874;9.154;2023-04-08T08:44:48;101001.94;;;7.77;100.00
71465;BME280;59274;49.874;9.154;2023-04-08T08:47:15;101012.72;;;7.65;100.00
71465;BME280;59274;49.874;9.154;2023-04-08T08:49:41;101013.44;;;7.53;100.00
71465;BME280;59274;49.874;9.154;2023-04-08T08:52:06;101015.78;;;7.42;99.16
71465;BME280;59274;49.874;9.154;2023-04-08T08:54:32;101013.22;;;7.25;100.00
71465;BME280;59274;49.874;9.154;2023-04-08T08:56:57;101022.38;;;7.33;100.00
71465;BME280;59274;49.874;9.154;2023-04-08T08:59:23;101018.50;;;7.42;100.00
71465;BME280;59274;49.874;9.154;2023-04-08T09:01:48;101019.13;;;7.39;100.00
71465;BME280;59274;49.874;9.154;2023-04-08T09:04:19;101015.22;;;7.37;100.00
71465;BME280;59274;49.874;9.154;2023-04-08T09:06:49;101024.28;;;7.32;100.00
71465;BME280;59274;49.874;9.154;2023-04-08T09:09:18;101015.56;;;7.47;100.00
71465;BME280;59274;49.874;9.154;2023-04-08T09:11:45;101018.59;;;7.46;100.00
71465;BME280;59274;49.874;9.154;2023-04-08T09:14:24;101016.50;;;7.52;100.00
71465;BME280;59274;49.874;9.154;2023-04-08T09:16:50;101018.84;;;7.74;100.00
71465;BME280;59274;49.874;9.154;2023-04-08T09:19:18;101021.97;;;7.76;100.00
71465;BME280;59274;49.874;9.154;2023-04-08T09:21:43;101024.72;;;7.55;100.00
71465;BME280;59274;49.874;9.154;2023-04-08T09:24:26;101027.91;;;7.57;100.00
71465;BME280;59274;49.874;9.154;2023-04-08T09:26:52;101023.75;;;7.60;100.00
71465;BME280;59274;49.874;9.154;2023-04-08T09:29:17;101031.41;;;7.58;100.00
71465;BME280;59274;49.874;9.154;2023-04-08T09:31:42;101028.47;;;7.63;100.00
71465;BME280;59274;49.874;9.154;2023-04-08T09:34:13;101030.47;;;7.54;100.00
71465;BME280;59274;49.874;9.154;2023-04-08T09:36:40;101029.31;;;7.42;100.00
71465;BME280;59274;49.874;9.154;2023-04-08T09:39:06;101035.69;;;7.59;98.31
71465;BME280;59274;49.874;9.154;2023-04-08T09:41:33;101025.69;;;7.71;97.51
71465;BME280;59274;49.874;9.154;2023-04-08T09:44:02;101022.41;;;8.11;94.73
71465;BME280;59274;49.874;9.154;2023-04-08T09:46:39;101025.94;;;8.23;93.02
71465;BME280;59274;49.874;9.154;2023-04-08T09:52:14;101023.59;;;8.46;91.77
71465;BME280;59274;49.874;9.154;2023-04-08T09:57:45;101023.66;;;8.98;89.24
71465;BME280;59274;49.874;9.154;2023-04-08T10:00:15;101028.41;;;9.01;88.43
71465;BME280;59274;49.874;9.154;2023-04-08T10:03:09;101032.38;;;8.92;88.23
71465;BME280;59274;49.874;9.154;2023-04-08T10:05:40;101029.75;;;8.95;88.55
71465;BME280;59274;49.874;9.154;2023-04-08T10:08:05;101027.06;;;8.95;88.33
71465;BME280;59274;49.874;9.154;2023-04-08T10:10:33;101031.13;;;9.01;87.63
71465;BME280;59274;49.874;9.154;2023-04-08T10:13:02;101025.84;;;8.93;86.73
71465;BME280;59274;49.874;9.154;2023-04-08T10:15:32;101024.38;;;8.71;86.51
71465;BME280;59274;49.874;9.154;2023-04-08T10:23:05;101024.16;;;9.28;83.87
71465;BME280;59274;49.874;9.154;2023-04-08T10:25:47;101028.88;;;9.59;83.00
71465;BME280;59274;49.874;9.154;2023-04-08T10:33:33;101038.78;;;9.95;76.74
71465;BME280;59274;49.874;9.154;2023-04-08T10:36:10;101036.53;;;9.69;78.71
71465;BME280;59274;49.874;9.154;2023-04-08T10:38:37;101030.63;;;9.79;79.58
71465;BME280;59274;49.874;9.154;2023-04-08T10:41:03;101032.91;;;9.93;80.13
71465;BME280;59274;49.874;9.154;2023-04-08T10:43:34;101023.38;;;9.99;78.58
71465;BME280;59274;49.874;9.154;2023-04-08T10:46:01;101021.13;;;10.01;79.08
71465;BME280;59274;49.874;9.154;2023-04-08T10:48:26;101032.22;;;9.96;78.55
71465;BME280;59274;49.874;9.154;2023-04-08T10:53:27;101025.53;;;10.22;77.52
71465;BME280;59274;49.874;9.154;2023-04-08T10:55:54;101015.25;;;10.15;77.96
71465;BME280;59274;49.874;9.154;2023-04-08T10:58:19;101014.69;;;10.22;77.84
71465;BME280;59274;49.874;9.154;2023-04-08T11:00:45;101007.13;;;10.31;78.40
71465;BME280;59274;49.874;9.154;2023-04-08T11:03:11;101009.06;;;10.30;77.61
71465;BME280;59274;49.874;9.154;2023-04-08T11:05:38;101009.66;;;10.55;76.07
71465;BME280;59274;49.874;9.154;2023-04-08T11:08:04;101012.69;;;10.69;76.13
71465;BME280;59274;49.874;9.154;2023-04-08T11:10:36;101012.97;;;10.80;75.17
71465;BME280;59274;49.874;9.154;2023-04-08T11:13:05;101012.66;;;10.85;73.77
71465;BME280;59274;49.874;9.154;2023-04-08T11:15:32;101005.56;;;11.15;72.39
71465;BME280;59274;49.874;9.154;2023-04-08T11:17:58;101015.16;;;11.28;71.21
71465;BME280;59274;49.874;9.154;2023-04-08T11:20:24;101016.16;;;11.39;71.16
71465;BME280;59274;49.874;9.154;2023-04-08T11:22:50;101011.44;;;11.36;70.16
71465;BME280;59274;49.874;9.154;2023-04-08T11:25:16;101024.59;;;11.34;71.46
71465;BME280;59274;49.874;9.154;2023-04-08T11:27:42;101024.00;;;11.45;69.79
71465;BME280;59274;49.874;9.154;2023-04-08T11:30:08;101017.50;;;11.30;71.59
71465;BME280;59274;49.874;9.154;2023-04-08T11:32:34;101015.38;;;11.39;71.59
71465;BME280;59274;49.874;9.154;2023-04-08T11:35:01;101016.59;;;11.42;70.57
71465;BME280;59274;49.874;9.154;2023-04-08T11:37:41;101009.34;;;11.11;72.45
71465;BME280;59274;49.874;9.154;2023-04-08T11:40:10;101000.84;;;11.31;70.84
71465;BME280;59274;49.874;9.154;2023-04-08T11:42:37;100994.00;;;11.60;70.96
71465;BME280;59274;49.874;9.154;2023-04-08T11:45:11;101005.78;;;11.26;70.81
71465;BME280;59274;49.874;9.154;2023-04-08T11:47:37;100996.31;;;11.39;71.41
71465;BME280;59274;49.874;9.154;2023-04-08T11:50:03;100987.00;;;11.59;70.15
71465;BME280;59274;49.874;9.154;2023-04-08T11:52:49;100989.72;;;11.59;69.22
71465;BME280;59274;49.874;9.154;2023-04-08T11:57:51;100983.91;;;11.80;68.18
71465;BME280;59274;49.874;9.154;2023-04-08T12:00:17;100986.47;;;11.92;68.67
71465;BME280;59274;49.874;9.154;2023-04-08T12:02:44;100983.69;;;11.89;67.70
71465;BME280;59274;49.874;9.154;2023-04-08T12:05:09;100979.69;;;12.05;67.45
71465;BME280;59274;49.874;9.154;2023-04-08T12:07:35;100981.38;;;12.63;66.17
71465;BME280;59274;49.874;9.154;2023-04-08T12:10:00;100985.69;;;13.23;62.76
71465;BME280;59274;49.874;9.154;2023-04-08T12:12:26;100983.16;;;13.75;60.51
71465;BME280;59274;49.874;9.154;2023-04-08T12:14:51;100980.75;;;14.10;61.21
71465;BME280;59274;49.874;9.154;2023-04-08T12:17:17;100980.38;;;14.11;59.11
71465;BME280;59274;49.874;9.154;2023-04-08T12:19:43;100977.91;;;14.40;58.81
71465;BME280;59274;49.874;9.154;2023-04-08T12:22:09;100986.63;;;14.12;58.28
71465;BME280;59274;49.874;9.154;2023-04-08T12:24:34;100986.50;;;14.01;59.78
71465;BME280;59274;49.874;9.154;2023-04-08T12:27:00;100994.41;;;13.69;60.07
71465;BME280;59274;49.874;9.154;2023-04-08T12:29:27;100986.19;;;13.66;60.11
71465;BME280;59274;49.874;9.154;2023-04-08T12:31:53;100985.53;;;14.24;60.50
71465;BME280;59274;49.874;9.154;2023-04-08T12:34:19;100985.09;;;14.66;58.95
71465;BME280;59274;49.874;9.154;2023-04-08T12:36:44;100984.94;;;13.97;57.94
71465;BME280;59274;49.874;9.154;2023-04-08T12:39:10;100987.31;;;14.02;62.54
71465;BME280;59274;49.874;9.154;2023-04-08T12:41:35;100994.56;;;13.50;60.36
71465;BME280;59274;49.874;9.154;2023-04-08T12:44:01;100985.94;;;13.45;61.07
71465;BME280;59274;49.874;9.154;2023-04-08T12:46:26;100986.66;;;13.38;61.72
71465;BME280;59274;49.874;9.154;2023-04-08T12:48:52;100981.19;;;13.08;63.15
71465;BME280;59274;49.874;9.154;2023-04-08T12:51:18;100982.91;;;12.90;63.50
71465;BME280;59274;49.874;9.154;2023-04-08T12:53:43;100978.47;;;12.78;64.62
71465;BME280;59274;49.874;9.154;2023-04-08T12:56:08;100975.06;;;12.59;65.88
71465;BME280;59274;49.874;9.154;2023-04-08T12:58:34;100976.16;;;12.80;66.10
71465;BME280;59274;49.874;9.154;2023-04-08T13:00:59;100976.44;;;13.02;65.68
71465;BME280;59274;49.874;9.154;2023-04-08T13:03:25;100974.56;;;12.79;65.37
71465;BME280;59274;49.874;9.154;2023-04-08T13:05:55;100974.91;;;12.74;65.51
71465;BME280;59274;49.874;9.154;2023-04-08T13:08:21;100969.78;;;12.99;66.42
71465;BME280;59274;49.874;9.154;2023-04-08T13:10:46;100971.16;;;12.86;66.52
71465;BME280;59274;49.874;9.154;2023-04-08T13:13:12;100968.50;;;12.89;66.13
71465;BME280;59274;49.874;9.154;2023-04-08T13:15:38;100965.16;;;12.73;69.10
71465;BME280;59274;49.874;9.154;2023-04-08T13:18:04;100978.47;;;12.52;64.95